sensor_id;sensor_type;location;lat;lon;timestamp;pressure;altitude;pressure_sealevel;temperature;humidity
54936;BME280;40838;50.676;7.838;2023-08-06T00:01:11;97354.78;;;12.47;100.00
54936;BME280;40838;50.676;7.838;2023-08-06T00:03:52;97354.22;;;12.50;100.00
54936;BME280;40838;50.676;7.838;2023-08-06T00:06:19;97347.63;;;12.47;100.00
54936;BME280;40838;50.676;7.838;2023-08-06T00:08:45;97344.34;;;12.37;100.00
54936;BME280;40838;50.676;7.838;2023-08-06T00:11:12;97338.34;;;12.45;100.00
54936;BME280;40838;50.676;7.838;2023-08-06T00:13:39;97341.53;;;12.47;100.00
54936;BME280;40838;50.676;7.838;2023-08-06T00:16:09;97342.88;;;12.44;100.00
54936;BME280;40838;50.676;7.838;2023-08-06T00:18:37;97341.84;;;12.45;100.00
54936;BME280;40838;50.676;7.838;2023-08-06T00:21:05;97332.00;;;12.46;100.00
54936;BME280;40838;50.676;7.838;2023-08-06T00:23:32;97327.91;;;12.54;100.00
54936;BME280;40838;50.676;7.838;2023-08-06T00:25:58;97321.31;;;12.51;100.00
54936;BME280;40838;50.676;7.838;2023-08-06T00:28:27;97324.41;;;12.39;100.00
54936;BME280;40838;50.676;7.838;2023-08-06T00:31:00;97320.72;;;12.35;100.00
54936;BME280;40838;50.676;7.838;2023-08-06T00:33:26;97317.66;;;12.28;100.00
54936;BME280;40838;50.676;7.838;2023-08-06T00:35:55;97331.81;;;12.18;100.00
54936;BME280;40838;50.676;7.838;2023-08-06T00:38:23;97321.00;;;12.15;100.00
54936;BME280;40838;50.676;7.838;2023-08-06T00:40:49;97316.25;;;12.12;100.00
54936;BME280;40838;50.676;7.838;2023-08-06T00:43:28;97317.19;;;12.02;100.00
54936;BME280;40838;50.676;7.838;2023-08-06T00:46:02;97317.47;;;12.00;100.00
54936;BME280;40838;50.676;7.838;2023-08-06T00:48:32;97308.94;;;12.03;100.00
54936;BME280;40838;50.676;7.838;2023-08-06T00:50:58;97313.34;;;12.13;100.00
54936;BME280;40838;50.676;7.838;2023-08-06T00:53:26;97308.50;;;12.15;100.00
54936;BME280;40838;50.676;7.838;2023-08-06T00:55:53;97309.59;;;12.14;100.00
54936;BME280;40838;50.676;7.838;2023-08-06T00:58:41;97305.53;;;12.22;100.00
54936;BME280;40838;50.676;7.838;2023-08-06T01:01:11;97311.03;;;12.25;100.00
54936;BME280;40838;50.676;7.838;2023-08-06T01:03:42;97308.34;;;12.31;100.00
54936;BME280;40838;50.676;7.838;2023-08-06T01:08:54;97294.03;;;12.26;100.00
54936;BME280;40838;50.676;7.838;2023-08-06T01:11:26;97286.97;;;12.22;100.00
54936;BME280;40838;50.676;7.838;2023-08-06T01:13:58;97282.44;;;12.22;100.00
54936;BME280;40838;50.676;7.838;2023-08-06T01:16:26;97289.53;;;12.27;100.00
54936;BME280;40838;50.676;7.838;2023-08-06T01:18:54;97288.94;;;12.30;100.00
54936;BME280;40838;50.676;7.838;2023-08-06T01:21:22;97286.09;;;12.26;100.00
54936;BME280;40838;50.676;7.838;2023-08-06T01:23:49;97277.56;;;12.29;100.00
54936;BME280;40838;50.676;7.838;2023-08-06T01:26:27;97277.13;;;12.41;100.00
54936;BME280;40838;50.676;7.838;2023-08-06T01:28:59;97278.91;;;12.46;100.00
54936;BME280;40838;50.676;7.838;2023-08-06T01:31:34;97279.88;;;12.55;100.00
54936;BME280;40838;50.676;7.838;2023-08-06T01:34:03;97274.56;;;12.55;100.00
54936;BME280;40838;50.676;7.838;2023-08-06T01:36:36;97272.03;;;12.64;100.00
54936;BME280;40838;50.676;7.838;2023-08-06T01:39:06;97270.03;;;12.74;100.00
54936;BME280;40838;50.676;7.838;2023-08-06T01:41:32;97267.56;;;12.78;100.00
54936;BME280;40838;50.676;7.838;2023-08-06T01:44:04;97262.25;;;12.78;100.00
54936;BME280;40838;50.676;7.838;2023-08-06T01:46:31;97266.16;;;12.67;100.00
54936;BME280;40838;50.676;7.838;2023-08-06T01:48:57;97266.94;;;12.67;100.00
54936;BME280;40838;50.676;7.838;2023-08-06T01:51:33;97262.25;;;12.78;100.00
54936;BME280;40838;50.676;7.838;2023-08-06T01:54:10;97262.72;;;12.66;100.00
54936;BME280;40838;50.676;7.838;2023-08-06T01:56:37;97272.91;;;12.59;100.00
54936;BME280;40838;50.676;7.838;2023-08-06T01:59:04;97255.91;;;12.60;100.00
54936;BME280;40838;50.676;7.838;2023-08-06T02:01:30;97265.31;;;12.52;100.00
54936;BME280;40838;50.676;7.838;2023-08-06T02:03:57;97269.28;;;12.50;100.00
54936;BME280;40838;50.676;7.838;2023-08-06T02:06:23;97265.22;;;12.58;100.00
54936;BME280;40838;50.676;7.838;2023-08-06T02:08:51;97266.00;;;12.58;100.00
54936;BME280;40838;50.676;7.838;2023-08-06T02:11:25;97266.94;;;12.67;100.00
54936;BME280;40838;50.676;7.838;2023-08-06T02:13:52;97257.19;;;12.63;100.00
54936;BME280;40838;50.676;7.838;2023-08-06T02:16:20;97260.44;;;12.60;100.00
54936;BME280;40838;50.676;7.838;2023-08-06T02:18:47;97247.69;;;12.76;100.00
54936;BME280;40838;50.676;7.838;2023-08-06T02:21:13;97243.69;;;12.59;100.00
54936;BME280;40838;50.676;7.838;2023-08-06T02:23:41;97246.06;;;12.61;100.00
54936;BME280;40838;50.676;7.838;2023-08-06T02:26:10;97241.94;;;12.55;100.00
54936;BME280;40838;50.676;7.838;2023-08-06T02:28:38;97246.47;;;12.68;100.00
54936;BME280;40838;50.676;7.838;2023-08-06T02:31:15;97233.72;;;12.70;100.00
54936;BME280;40838;50.676;7.838;2023-08-06T02:33:41;97231.63;;;12.67;100.00
54936;BME280;40838;50.676;7.838;2023-08-06T02:36:08;97230.94;;;12.61;100.00
54936;BME280;40838;50.676;7.838;2023-08-06T02:38:34;97232.03;;;12.60;100.00
54936;BME280;40838;50.676;7.838;2023-08-06T02:41:02;97230.41;;;12.59;100.00
54936;BME280;40838;50.676;7.838;2023-08-06T02:43:31;97230.41;;;12.59;100.00
54936;BME280;40838;50.676;7.838;2023-08-06T02:45:58;97224.16;;;12.50;100.00
54936;BME280;40838;50.676;7.838;2023-08-06T02:48:27;97218.31;;;12.53;100.00
54936;BME280;40838;50.676;7.838;2023-08-06T02:50:56;97217.47;;;12.58;100.00
54936;BME280;40838;50.676;7.838;2023-08-06T02:53:23;97214.59;;;12.54;100.00
54936;BME280;40838;50.676;7.838;2023-08-06T02:55:50;97222.84;;;12.52;100.00
54936;BME280;40838;50.676;7.838;2023-08-06T02:58:21;97206.75;;;12.44;100.00
54936;BME280;40838;50.676;7.838;2023-08-06T03:01:10;97195.50;;;12.52;100.00
54936;BME280;40838;50.676;7.838;2023-08-06T03:03:45;97197.69;;;12.45;100.00
54936;BME280;40838;50.676;7.838;2023-08-06T03:06:31;97195.16;;;12.40;100.00
54936;BME280;40838;50.676;7.838;2023-08-06T03:09:01;97187.97;;;12.40;100.00
54936;BME280;40838;50.676;7.838;2023-08-06T03:11:29;97189.22;;;12.29;100.00
54936;BME280;40838;50.676;7.838;2023-08-06T03:14:02;97189.97;;;12.16;100.00
54936;BME280;40838;50.676;7.838;2023-08-06T03:16:33;97186.72;;;12.19;100.00
54936;BME280;40838;50.676;7.838;2023-08-06T03:19:03;97193.59;;;12.01;100.00
54936;BME280;40838;50.676;7.838;2023-08-06T03:21:30;97189.59;;;11.84;100.00
54936;BME280;40838;50.676;7.838;2023-08-06T03:23:58;97191.88;;;11.91;100.00
54936;BME280;40838;50.676;7.838;2023-08-06T03:26:28;97188.88;;;11.98;100.00
54936;BME280;40838;50.676;7.838;2023-08-06T03:29:09;97178.84;;;11.95;100.00
54936;BME280;40838;50.676;7.838;2023-08-06T03:31:38;97175.03;;;12.01;100.00
54936;BME280;40838;50.676;7.838;2023-08-06T03:34:06;97175.75;;;12.06;100.00
54936;BME280;40838;50.676;7.838;2023-08-06T03:36:32;97179.22;;;12.07;100.00
54936;BME280;40838;50.676;7.838;2023-08-06T03:39:00;97173.59;;;12.09;100.00
54936;BME280;40838;50.676;7.838;2023-08-06T03:41:29;97168.59;;;12.07;100.00
54936;BME280;40838;50.676;7.838;2023-08-06T03:44:09;97161.31;;;12.13;100.00
54936;BME280;40838;50.676;7.838;2023-08-06T03:46:36;97166.94;;;12.11;100.00
54936;BME280;40838;50.676;7.838;2023-08-06T03:49:08;97166.16;;;12.11;100.00
54936;BME280;40838;50.676;7.838;2023-08-06T03:51:35;97170.81;;;12.19;100.00
54936;BME280;40838;50.676;7.838;2023-08-06T03:54:02;97161.25;;;12.18;100.00
54936;BME280;40838;50.676;7.838;2023-08-06T03:56:31;97166.75;;;12.21;100.00
54936;BME280;40838;50.676;7.838;2023-08-06T03:58:58;97162.03;;;12.18;100.00
54936;BME280;40838;50.676;7.838;2023-08-06T04:01:29;97157.53;;;12.19;100.00
54936;BME280;40838;50.676;7.838;2023-08-06T04:03:58;97158.69;;;12.13;100.00
54936;BME280;40838;50.676;7.838;2023-08-06T04:06:26;97148.50;;;12.20;100.00
54936;BME280;40838;50.676;7.838;2023-08-06T04:08:54;97148.88;;;12.13;100.00
54936;BME280;40838;50.676;7.838;2023-08-06T04:11:22;97143.19;;;12.20;100.00
54936;BME280;40838;50.676;7.838;2023-08-06T04:13:50;97151.28;;;12.10;100.00
54936;BME280;40838;50.676;7.838;2023-08-06T04:16:17;97143.69;;;12.22;100.00
54936;BME280;40838;50.676;7.838;2023-08-06T04:18:43;97150.44;;;12.14;100.00
54936;BME280;40838;50.676;7.838;2023-08-06T04:21:12;97147.06;;;12.09;100.00
54936;BME280;40838;50.676;7.838;2023-08-06T04:23:40;97149.53;;;12.05;100.00
54936;BME280;40838;50.676;7.838;2023-08-06T04:26:11;97149.59;;;12.00;100.00
54936;BME280;40838;50.676;7.838;2023-08-06T04:28:40;97144.88;;;11.97;100.00
54936;BME280;40838;50.676;7.838;2023-08-06T04:31:09;97137.69;;;11.97;100.00
54936;BME280;40838;50.676;7.838;2023-08-06T04:33:39;97150.69;;;11.99;100.00
54936;BME280;40838;50.676;7.838;2023-08-06T04:36:09;97144.72;;;11.88;100.00
54936;BME280;40838;50.676;7.838;2023-08-06T04:38:35;97148.75;;;11.86;100.00
54936;BME280;40838;50.676;7.838;2023-08-06T04:41:03;97140.00;;;11.85;100.00
54936;BME280;40838;50.676;7.838;2023-08-06T04:43:44;97146.28;;;11.89;100.00
54936;BME280;40838;50.676;7.838;2023-08-06T04:46:13;97149.19;;;11.93;100.00
54936;BME280;40838;50.676;7.838;2023-08-06T04:48:42;97148.75;;;11.86;100.00
54936;BME280;40838;50.676;7.838;2023-08-06T04:51:11;97144.47;;;11.90;100.00
54936;BME280;40838;50.676;7.838;2023-08-06T04:53:37;97154.19;;;11.75;100.00
54936;BME280;40838;50.676;7.838;2023-08-06T05:01:31;97151.69;;;11.84;100.00
54936;BME280;40838;50.676;7.838;2023-08-06T05:03:57;97149.97;;;11.93;100.00
54936;BME280;40838;50.676;7.838;2023-08-06T05:06:28;97148.03;;;11.99;100.00
54936;BME280;40838;50.676;7.838;2023-08-06T05:08:55;97151.03;;;12.11;100.00
54936;BME280;40838;50.676;7.838;2023-08-06T05:11:22;97146.09;;;12.04;100.00
54936;BME280;40838;50.676;7.838;2023-08-06T05:13:49;97139.47;;;12.21;100.00
54936;BME280;40838;50.676;7.838;2023-08-06T05:16:15;97144.81;;;12.35;100.00
54936;BME280;40838;50.676;7.838;2023-08-06T05:18:47;97142.81;;;12.26;100.00
54936;BME280;40838;50.676;7.838;2023-08-06T05:21:13;97135.94;;;12.25;100.00
54936;BME280;40838;50.676;7.838;2023-08-06T05:23:41;97139.06;;;12.14;100.00
54936;BME280;40838;50.676;7.838;2023-08-06T05:26:10;97142.34;;;12.24;100.00
54936;BME280;40838;50.676;7.838;2023-08-06T05:28:39;97148.69;;;12.23;100.00
54936;BME280;40838;50.676;7.838;2023-08-06T05:31:13;97142.41;;;12.19;100.00
54936;BME280;40838;50.676;7.838;2023-08-06T05:33:48;97139.31;;;12.31;100.00
54936;BME280;40838;50.676;7.838;2023-08-06T05:36:15;97140.75;;;12.23;100.00
54936;BME280;40838;50.676;7.838;2023-08-06T05:38:42;97145.84;;;12.20;100.00
54936;BME280;40838;50.676;7.838;2023-08-06T05:41:23;97149.47;;;12.24;100.00
54936;BME280;40838;50.676;7.838;2023-08-06T05:43:49;97146.19;;;12.32;100.00
54936;BME280;40838;50.676;7.838;2023-08-06T05:46:16;97142.88;;;12.21;100.00
54936;BME280;40838;50.676;7.838;2023-08-06T05:48:42;97146.97;;;12.33;100.00
54936;BME280;40838;50.676;7.838;2023-08-06T05:51:19;97151.81;;;12.44;100.00
54936;BME280;40838;50.676;7.838;2023-08-06T05:53:46;97145.63;;;12.49;100.00
54936;BME280;40838;50.676;7.838;2023-08-06T05:56:14;97146.00;;;12.10;100.00
54936;BME280;40838;50.676;7.838;2023-08-06T05:58:41;97157.03;;;12.17;100.00
54936;BME280;40838;50.676;7.838;2023-08-06T06:01:07;97148.16;;;12.40;100.00
54936;BME280;40838;50.676;7.838;2023-08-06T06:03:40;97149.81;;;12.55;100.00
54936;BME280;40838;50.676;7.838;2023-08-06T06:06:06;97151.44;;;12.51;100.00
54936;BME280;40838;50.676;7.838;2023-08-06T06:08:34;97153.16;;;12.61;100.00
54936;BME280;40838;50.676;7.838;2023-08-06T06:11:01;97157.81;;;12.36;100.00
54936;BME280;40838;50.676;7.838;2023-08-06T06:13:27;97148.56;;;12.47;100.00
54936;BME280;40838;50.676;7.838;2023-08-06T06:15:54;97152.66;;;12.59;100.00
54936;BME280;40838;50.676;7.838;2023-08-06T06:18:20;97157.88;;;12.64;100.00
54936;BME280;40838;50.676;7.838;2023-08-06T06:20:49;97154.25;;;12.41;100.00
54936;BME280;40838;50.676;7.838;2023-08-06T06:23:16;97157.38;;;12.62;100.00
54936;BME280;40838;50.676;7.838;2023-08-06T06:25:46;97152.03;;;12.81;100.00
54936;BME280;40838;50.676;7.838;2023-08-06T06:28:13;97153.31;;;12.83;100.00
54936;BME280;40838;50.676;7.838;2023-08-06T06:30:42;97158.69;;;12.78;100.00
54936;BME280;40838;50.676;7.838;2023-08-06T06:33:08;97156.22;;;12.68;100.00
54936;BME280;40838;50.676;7.838;2023-08-06T06:35:37;97163.28;;;12.59;100.00
54936;BME280;40838;50.676;7.838;2023-08-06T06:38:11;97165.84;;;12.45;100.00
54936;BME280;40838;50.676;7.838;2023-08-06T06:40:41;97161.50;;;12.54;100.00
54936;BME280;40838;50.676;7.838;2023-08-06T06:43:09;97165.91;;;12.26;100.00
54936;BME280;40838;50.676;7.838;2023-08-06T06:45:39;97163.44;;;12.48;100.00
54936;BME280;40838;50.676;7.838;2023-08-06T06:48:22;97165.38;;;12.43;100.00
54936;BME280;40838;50.676;7.838;2023-08-06T06:50:48;97164.41;;;12.71;100.00
54936;BME280;40838;50.676;7.838;2023-08-06T06:53:17;97164.06;;;12.59;100.00
54936;BME280;40838;50.676;7.838;2023-08-06T06:55:43;97156.56;;;13.08;100.00
54936;BME280;40838;50.676;7.838;2023-08-06T06:58:15;97155.25;;;12.91;100.00
54936;BME280;40838;50.676;7.838;2023-08-06T07:00:46;97158.63;;;12.83;100.00
54936;BME280;40838;50.676;7.838;2023-08-06T07:03:12;97154.69;;;12.48;100.00
54936;BME280;40838;50.676;7.838;2023-08-06T07:05:39;97157.31;;;12.67;100.00
54936;BME280;40838;50.676;7.838;2023-08-06T07:08:16;97157.25;;;13.13;100.00
54936;BME280;40838;50.676;7.838;2023-08-06T07:10:45;97153.03;;;13.12;100.00
54936;BME280;40838;50.676;7.838;2023-08-06T07:13:18;97156.56;;;12.80;100.00
54936;BME280;40838;50.676;7.838;2023-08-06T07:15:44;97159.69;;;12.68;100.00
54936;BME280;40838;50.676;7.838;2023-08-06T07:18:11;97157.78;;;12.55;100.00
54936;BME280;40838;50.676;7.838;2023-08-06T07:20:37;97161.41;;;12.59;100.00
54936;BME280;40838;50.676;7.838;2023-08-06T07:23:06;97158.50;;;12.88;100.00
54936;BME280;40838;50.676;7.838;2023-08-06T07:25:32;97167.13;;;12.66;100.00
54936;BME280;40838;50.676;7.838;2023-08-06T07:27:59;97170.09;;;12.79;100.00
54936;BME280;40838;50.676;7.838;2023-08-06T07:30:28;97164.22;;;12.95;100.00
54936;BME280;40838;50.676;7.838;2023-08-06T07:32:56;97164.06;;;12.59;100.00
54936;BME280;40838;50.676;7.838;2023-08-06T07:35:28;97171.88;;;12.97;100.00
54936;BME280;40838;50.676;7.838;2023-08-06T07:37:57;97173.47;;;13.26;100.00
54936;BME280;40838;50.676;7.838;2023-08-06T07:40:27;97177.50;;;13.51;100.00
54936;BME280;40838;50.676;7.838;2023-08-06T07:42:56;97176.91;;;13.54;100.00
54936;BME280;40838;50.676;7.838;2023-08-06T07:45:23;97180.94;;;13.24;100.00
54936;BME280;40838;50.676;7.838;2023-08-06T07:47:54;97178.00;;;13.25;100.00
54936;BME280;40838;50.676;7.838;2023-08-06T07:50:30;97171.72;;;13.07;100.00
54936;BME280;40838;50.676;7.838;2023-08-06T07:53:10;97172.28;;;13.18;100.00
54936;BME280;40838;50.676;7.838;2023-08-06T07:55:40;97184.38;;;13.38;100.00
54936;BME280;40838;50.676;7.838;2023-08-06T07:58:06;97176.31;;;13.29;100.00
54936;BME280;40838;50.676;7.838;2023-08-06T08:00:33;97182.81;;;13.37;100.00
54936;BME280;40838;50.676;7.838;2023-08-06T08:03:03;97181.31;;;13.58;100.00
54936;BME280;40838;50.676;7.838;2023-08-06T08:05:30;97177.56;;;13.87;100.00
54936;BME280;40838;50.676;7.838;2023-08-06T08:07:56;97174.59;;;13.89;100.00
54936;BME280;40838;50.676;7.838;2023-08-06T08:10:23;97176.59;;;13.83;100.00
54936;BME280;40838;50.676;7.838;2023-08-06T08:13:00;97174.81;;;14.37;100.00
54936;BME280;40838;50.676;7.838;2023-08-06T08:15:28;97178.19;;;14.29;100.00
54936;BME280;40838;50.676;7.838;2023-08-06T08:17:57;97171.56;;;14.94;100.00
54936;BME280;40838;50.676;7.838;2023-08-06T08:23:04;97174.47;;;14.61;100.00
54936;BME280;40838;50.676;7.838;2023-08-06T08:25:31;97169.75;;;14.81;100.00
54936;BME280;40838;50.676;7.838;2023-08-06T08:27:59;97171.03;;;14.61;100.00
54936;BME280;40838;50.676;7.838;2023-08-06T08:30:26;97179.00;;;14.29;100.00
54936;BME280;40838;50.676;7.838;2023-08-06T08:32:52;97169.91;;;13.72;100.00
54936;BME280;40838;50.676;7.838;2023-08-06T08:35:19;97178.19;;;13.70;100.00
54936;BME280;40838;50.676;7.838;2023-08-06T08:37:45;97179.16;;;13.60;100.00
54936;BME280;40838;50.676;7.838;2023-08-06T08:40:13;97183.09;;;13.63;100.00
54936;BME280;40838;50.676;7.838;2023-08-06T08:42:40;97181.38;;;13.95;100.00
54936;BME280;40838;50.676;7.838;2023-08-06T08:45:09;97182.28;;;13.90;100.00
54936;BME280;40838;50.676;7.838;2023-08-06T08:47:37;97191.13;;;14.22;100.00
54936;BME280;40838;50.676;7.838;2023-08-06T08:50:06;97188.97;;;14.24;100.00
54936;BME280;40838;50.676;7.838;2023-08-06T08:52:40;97188.44;;;14.36;100.00
54936;BME280;40838;50.676;7.838;2023-08-06T08:55:07;97193.06;;;13.71;100.00
54936;BME280;40838;50.676;7.838;2023-08-06T08:57:37;97192.19;;;13.34;100.00
54936;BME280;40838;50.676;7.838;2023-08-06T09:00:04;97199.56;;;13.51;100.00
54936;BME280;40838;50.676;7.838;2023-08-06T09:02:32;97192.47;;;13.74;100.00
54936;BME280;40838;50.676;7.838;2023-08-06T09:04:59;97195.09;;;13.60;100.00
54936;BME280;40838;50.676;7.838;2023-08-06T09:07:29;97200.06;;;13.39;100.00
54936;BME280;40838;50.676;7.838;2023-08-06T09:09:58;97202.72;;;13.53;100.00
54936;BME280;40838;50.676;7.838;2023-08-06T09:12:28;97210.59;;;13.31;100.00
54936;BME280;40838;50.676;7.838;2023-08-06T09:14:56;97213.41;;;13.20;100.00
54936;BME280;40838;50.676;7.838;2023-08-06T09:17:27;97210.69;;;13.39;100.00
54936;BME280;40838;50.676;7.838;2023-08-06T09:20:08;97206.53;;;13.89;100.00
54936;BME280;40838;50.676;7.838;2023-08-06T09:22:34;97213.41;;;13.90;100.00
54936;BME280;40838;50.676;7.838;2023-08-06T09:25:01;97210.59;;;13.72;100.00
54936;BME280;40838;50.676;7.838;2023-08-06T09:27:29;97212.84;;;13.65;100.00
54936;BME280;40838;50.676;7.838;2023-08-06T09:29:57;97213.59;;;13.93;100.00
54936;BME280;40838;50.676;7.838;2023-08-06T09:32:57;97216.34;;;13.88;100.00
54936;BME280;40838;50.676;7.838;2023-08-06T09:35:49;97213.75;;;13.74;100.00
54936;BME280;40838;50.676;7.838;2023-08-06T09:38:44;97224.72;;;13.95;100.00
54936;BME280;40838;50.676;7.838;2023-08-06T09:41:13;97214.56;;;14.33;100.00
54936;BME280;40838;50.676;7.838;2023-08-06T09:43:53;97214.00;;;14.45;100.00
54936;BME280;40838;50.676;7.838;2023-08-06T09:46:24;97218.53;;;13.58;100.00
54936;BME280;40838;50.676;7.838;2023-08-06T09:48:50;97224.72;;;13.95;100.00
54936;BME280;40838;50.676;7.838;2023-08-06T09:51:17;97219.56;;;14.13;100.00
54936;BME280;40838;50.676;7.838;2023-08-06T09:53:46;97217.09;;;14.16;100.00
54936;BME280;40838;50.676;7.838;2023-08-06T09:56:15;97216.44;;;14.33;100.00
54936;BME280;40838;50.676;7.838;2023-08-06T09:58:43;97216.97;;;14.89;100.00
54936;BME280;40838;50.676;7.838;2023-08-06T10:01:13;97224.09;;;15.42;100.00
54936;BME280;40838;50.676;7.838;2023-08-06T10:03:45;97213.75;;;15.00;100.00
54936;BME280;40838;50.676;7.838;2023-08-06T10:06:18;97223.28;;;15.33;100.00
54936;BME280;40838;50.676;7.838;2023-08-06T10:08:46;97215.22;;;15.55;100.00
54936;BME280;40838;50.676;7.838;2023-08-06T10:11:19;97213.44;;;16.25;100.00
54936;BME280;40838;50.676;7.838;2023-08-06T10:13:49;97216.13;;;16.25;100.00
54936;BME280;40838;50.676;7.838;2023-08-06T10:16:16;97211.13;;;15.09;100.00
54936;BME280;40838;50.676;7.838;2023-08-06T10:21:31;97214.44;;;14.39;100.00
54936;BME280;40838;50.676;7.838;2023-08-06T10:23:58;97219.34;;;13.73;100.00
54936;BME280;40838;50.676;7.838;2023-08-06T10:26:29;97215.06;;;13.99;100.00
54936;BME280;40838;50.676;7.838;2023-08-06T10:28:56;97212.97;;;14.10;100.00
54936;BME280;40838;50.676;7.838;2023-08-06T10:34:08;97206.97;;;14.94;100.00
54936;BME280;40838;50.676;7.838;2023-08-06T10:36:36;97211.66;;;14.89;100.00
54936;BME280;40838;50.676;7.838;2023-08-06T10:39:03;97216.72;;;14.31;100.00
54936;BME280;40838;50.676;7.838;2023-08-06T10:41:30;97220.19;;;13.96;100.00
54936;BME280;40838;50.676;7.838;2023-08-06T10:44:05;97215.25;;;14.03;100.00
54936;BME280;40838;50.676;7.838;2023-08-06T10:46:31;97229.56;;;13.79;100.00
54936;BME280;40838;50.676;7.838;2023-08-06T10:48:59;97218.22;;;13.87;100.00
54936;BME280;40838;50.676;7.838;2023-08-06T10:51:25;97216.88;;;13.35;100.00
54936;BME280;40838;50.676;7.838;2023-08-06T10:53:55;97221.22;;;13.45;100.00
54936;BME280;40838;50.676;7.838;2023-08-06T10:56:23;97227.31;;;13.45;100.00
54936;BME280;40838;50.676;7.838;2023-08-06T10:58:54;97229.88;;;13.50;100.00
54936;BME280;40838;50.676;7.838;2023-08-06T11:01:23;97242.38;;;13.36;100.00
54936;BME280;40838;50.676;7.838;2023-08-06T11:03:50;97236.47;;;13.53;100.00
54936;BME280;40838;50.676;7.838;2023-08-06T11:06:18;97239.09;;;13.11;100.00
54936;BME280;40838;50.676;7.838;2023-08-06T11:08:47;97249.94;;;13.29;100.00
54936;BME280;40838;50.676;7.838;2023-08-06T11:11:24;97254.19;;;13.30;100.00
54936;BME280;40838;50.676;7.838;2023-08-06T11:13:50;97253.56;;;13.05;100.00
54936;BME280;40838;50.676;7.838;2023-08-06T11:16:18;97255.13;;;12.92;100.00
54936;BME280;40838;50.676;7.838;2023-08-06T11:18:47;97259.84;;;12.95;100.00
54936;BME280;40838;50.676;7.838;2023-08-06T11:21:13;97259.03;;;12.81;100.00
54936;BME280;40838;50.676;7.838;2023-08-06T11:23:49;97265.06;;;12.68;100.00
54936;BME280;40838;50.676;7.838;2023-08-06T11:26:25;97276.38;;;12.60;100.00
54936;BME280;40838;50.676;7.838;2023-08-06T11:28:54;97276.44;;;12.55;100.00
54936;BME280;40838;50.676;7.838;2023-08-06T11:31:21;97287.81;;;12.36;100.00
54936;BME280;40838;50.676;7.838;2023-08-06T11:33:52;97287.53;;;12.19;100.00
54936;BME280;40838;50.676;7.838;2023-08-06T11:36:28;97294.25;;;12.11;100.00
54936;BME280;40838;50.676;7.838;2023-08-06T11:38:55;97302.94;;;12.17;100.00
54936;BME280;40838;50.676;7.838;2023-08-06T11:41:21;97313.75;;;12.20;100.00
54936;BME280;40838;50.676;7.838;2023-08-06T11:43:49;97316.63;;;12.05;100.00
54936;BME280;40838;50.676;7.838;2023-08-06T11:46:40;97318.91;;;11.93;100.00
54936;BME280;40838;50.676;7.838;2023-08-06T11:51:55;97336.38;;;11.94;100.00
54936;BME280;40838;50.676;7.838;2023-08-06T11:54:30;97334.16;;;11.77;100.00
54936;BME280;40838;50.676;7.838;2023-08-06T11:56:58;97344.50;;;11.78;100.00
54936;BME280;40838;50.676;7.838;2023-08-06T11:59:33;97338.25;;;11.69;100.00
54936;BME280;40838;50.676;7.838;2023-08-06T12:02:14;97349.81;;;11.54;100.00
54936;BME280;40838;50.676;7.838;2023-08-06T12:07:25;97348.41;;;12.29;100.00
54936;BME280;40838;50.676;7.838;2023-08-06T12:10:06;97355.44;;;11.96;100.00
54936;BME280;40838;50.676;7.838;2023-08-06T12:12:48;97350.47;;;12.13;100.00
54936;BME280;40838;50.676;7.838;2023-08-06T12:15:16;97365.44;;;12.04;100.00
54936;BME280;40838;50.676;7.838;2023-08-06T12:17:43;97363.84;;;12.03;100.00
54936;BME280;40838;50.676;7.838;2023-08-06T12:20:12;97363.78;;;12.08;100.00
54936;BME280;40838;50.676;7.838;2023-08-06T12:22:38;97370.88;;;12.13;100.00
54936;BME280;40838;50.676;7.838;2023-08-06T12:25:08;97381.22;;;12.14;100.00
54936;BME280;40838;50.676;7.838;2023-08-06T12:27:37;97379.41;;;12.34;100.00
54936;BME280;40838;50.676;7.838;2023-08-06T12:30:07;97393.28;;;12.25;100.00
54936;BME280;40838;50.676;7.838;2023-08-06T12:32:37;97391.06;;;11.90;100.00
54936;BME280;40838;50.676;7.838;2023-08-06T12:35:06;97396.72;;;12.26;100.00
54936;BME280;40838;50.676;7.838;2023-08-06T12:37:47;97396.50;;;11.74;100.00
54936;BME280;40838;50.676;7.838;2023-08-06T12:40:13;97397.75;;;12.06;100.00
54936;BME280;40838;50.676;7.838;2023-08-06T12:42:40;97404.31;;;11.90;100.00
54936;BME280;40838;50.676;7.838;2023-08-06T12:45:07;97408.19;;;11.97;100.00
54936;BME280;40838;50.676;7.838;2023-08-06T12:47:39;97413.16;;;11.80;100.00
54936;BME280;40838;50.676;7.838;2023-08-06T12:50:10;97409.16;;;11.82;100.00
54936;BME280;40838;50.676;7.838;2023-08-06T12:52:37;97422.91;;;11.84;100.00
54936;BME280;40838;50.676;7.838;2023-08-06T12:55:04;97424.97;;;11.93;100.00
54936;BME280;40838;50.676;7.838;2023-08-06T12:57:32;97425.13;;;12.01;100.00
54936;BME280;40838;50.676;7.838;2023-08-06T13:00:01;97434.88;;;12.30;100.00
54936;BME280;40838;50.676;7.838;2023-08-06T13:02:40;97437.59;;;12.01;100.00
54936;BME280;40838;50.676;7.838;2023-08-06T13:05:06;97436.81;;;12.00;100.00
54936;BME280;40838;50.676;7.838;2023-08-06T13:07:35;97441.66;;;11.93;100.00
54936;BME280;40838;50.676;7.838;2023-08-06T13:10:01;97438.41;;;12.01;100.00
54936;BME280;40838;50.676;7.838;2023-08-06T13:12:28;97442.41;;;11.99;100.00
54936;BME280;40838;50.676;7.838;2023-08-06T13:14:54;97441.44;;;11.90;100.00
54936;BME280;40838;50.676;7.838;2023-08-06T13:17:32;97449.78;;;12.02;100.00
54936;BME280;40838;50.676;7.838;2023-08-06T13:20:20;97454.88;;;11.98;100.00
54936;BME280;40838;50.676;7.838;2023-08-06T13:22:49;97453.44;;;12.30;100.00
54936;BME280;40838;50.676;7.838;2023-08-06T13:25:22;97450.53;;;12.07;100.00